Terminal Aerodrome Forecast
Issued by NWS Upton, NY

Home | Current Version | Previous Version | Text Only | Print | Product List | Glossary On
Versions: 1 2 3 4 5 6 7 8 9 10 11 12 13 14 15 16 17 18 19 20 21 22 23 24 25 26 27
000
FTUS41 KOKX 020129 AAA
TAFBDR
TAF AMD
KBDR 020129Z 0201/0224 05010KT 4SM -DZ BR OVC006
     FM020400 05010KT 4SM BR OVC004
     FM020600 05007KT 2SM BR OVC004
     FM021600 09008KT 2SM BR OVC006
     FM021900 VRB06KT 4SM BR OVC008
     FM022100 VRB05KT P6SM BKN015=

USA.gov is the U.S. government's official web portal to all federal, state and local government web resources and services.